Time;durP1;ratioP1;P1;durP2;ratioP2;P2;SDS_P1;SDS_P2;PMS_P1;PMS_P2;Temp;Humidity;BMP_temperature;BMP_pressure;BME280_temperature;BME280_humidity;BME280_pressure;Samples;Min_cycle;Max_cycle;Signal;HPM_P1;HPM_P2
2021/10/13 00:01:54;;;;;;;5.65;3.10;;;;;;;6.05;77.78;100849.27;1674380;84;21597;-82
2021/10/13 00:04:21;;;;;;;5.08;3.42;;;;;;;6.05;77.78;100848.38;1675100;84;21055;-81
2021/10/13 00:06:48;;;;;;;4.67;2.42;;;;;;;6.04;77.79;100848.77;1675085;84;21767;-81
2021/10/13 00:09:15;;;;;;;6.67;2.72;;;;;;;6.01;77.81;100854.77;1674828;85;21043;-81
2021/10/13 00:11:41;;;;;;;4.60;3.00;;;;;;;6.01;77.86;100856.08;1674979;85;21506;-81
2021/10/13 00:14:09;;;;;;;5.05;3.10;;;;;;;5.99;77.88;100859.45;1675005;84;21604;-81
2021/10/13 00:16:36;;;;;;;6.55;3.00;;;;;;;6.00;77.86;100856.00;1675230;84;21084;-82
2021/10/13 00:19:06;;;;;;;4.90;3.00;;;;;;;5.95;77.85;100858.42;1675189;84;21778;-81
2021/10/13 00:21:32;;;;;;;5.97;3.15;;;;;;;5.92;77.89;100858.23;1648383;85;21051;-81
2021/10/13 00:23:59;;;;;;;4.90;3.00;;;;;;;5.91;78.00;100864.30;1669510;84;21154;-81
2021/10/13 00:26:28;;;;;;;4.87;3.20;;;;;;;5.93;78.16;100860.03;1647357;85;21126;-81
2021/10/13 00:28:55;;;;;;;4.37;3.08;;;;;;;6.00;78.27;100859.92;1675082;84;21083;-81
2021/10/13 00:31:23;;;;;;;5.60;2.80;;;;;;;6.08;78.37;100869.41;1675005;84;21850;-81
2021/10/13 00:33:52;;;;;;;6.35;3.20;;;;;;;6.14;78.42;100873.63;1669537;84;21637;-81
2021/10/13 00:36:19;;;;;;;5.47;3.02;;;;;;;6.20;78.42;100872.16;1674724;84;21126;-81
2021/10/13 00:38:45;;;;;;;4.95;3.22;;;;;;;6.28;78.42;100874.23;1674928;85;21087;-81
2021/10/13 00:41:15;;;;;;;7.85;3.40;;;;;;;6.33;78.39;100872.72;1674092;85;21566;-80
2021/10/13 00:43:45;;;;;;;6.25;2.80;;;;;;;6.38;78.36;100869.87;1674832;85;21568;-81
2021/10/13 00:46:14;;;;;;;4.62;2.80;;;;;;;6.44;78.33;100872.77;1646674;85;21081;-81
2021/10/13 00:48:43;;;;;;;7.28;2.95;;;;;;;6.47;78.26;100873.31;1674942;85;21055;-81
2021/10/13 00:51:09;;;;;;;4.47;2.80;;;;;;;6.47;78.12;100878.53;1674889;84;21939;-81
2021/10/13 00:53:36;;;;;;;4.55;2.87;;;;;;;6.42;78.04;100875.73;1675040;84;21150;-81
2021/10/13 00:56:03;;;;;;;4.22;2.50;;;;;;;6.41;78.16;100877.86;1674710;84;22355;-80
2021/10/13 00:58:30;;;;;;;4.95;2.98;;;;;;;6.41;78.14;100870.89;1674434;84;21115;-80
2021/10/13 01:01:06;;;;;;;5.62;2.52;;;;;;;6.39;78.04;100872.55;1674734;84;21095;-80
2021/10/13 01:07:13;;;;;;;4.72;2.52;;;;;;;6.33;78.07;100880.56;1587987;88;21120;-80
2021/10/13 01:10:00;;;;;;;4.67;2.60;;;;;;;6.31;78.12;100882.22;1563815;90;22483;-81
2021/10/13 01:12:55;;;;;;;4.70;3.10;;;;;;;6.26;78.13;100876.77;1558750;90;21147;-80
2021/10/13 01:16:05;;;;;;;5.35;2.52;;;;;;;6.27;78.27;100883.80;1559198;90;21173;-81
2021/10/13 01:18:55;;;;;;;4.70;2.70;;;;;;;6.31;78.35;100886.14;1559050;90;21137;-81
2021/10/13 01:22:01;;;;;;;6.05;3.08;;;;;;;6.31;78.26;100880.48;1559263;91;21157;-81
2021/10/13 01:25:01;;;;;;;5.22;2.70;;;;;;;6.26;78.17;100882.00;1595607;89;21836;-81
2021/10/13 01:27:39;;;;;;;5.10;2.47;;;;;;;6.19;78.18;100880.84;1547477;92;21099;-82
2021/10/13 01:30:06;;;;;;;5.33;2.98;;;;;;;6.14;78.19;100886.69;1587529;88;21129;-82
2021/10/13 01:32:37;;;;;;;4.15;2.17;;;;;;;6.08;78.28;100884.70;1575382;89;21058;-82
2021/10/13 01:35:04;;;;;;;5.47;2.50;;;;;;;6.07;78.36;100882.89;1595940;88;21147;-83
2021/10/13 01:37:39;;;;;;;4.53;2.47;;;;;;;6.04;78.43;100884.05;1573945;89;22501;-82
2021/10/13 01:40:07;;;;;;;3.37;2.22;;;;;;;6.03;78.51;100885.78;1595790;88;21134;-82
2021/10/13 01:42:34;;;;;;;5.87;2.70;;;;;;;6.03;78.57;100887.50;1574608;89;21612;-82
2021/10/13 01:45:03;;;;;;;4.22;2.55;;;;;;;6.02;78.65;100893.15;1631688;87;21125;-82
2021/10/13 01:47:33;;;;;;;4.83;2.12;;;;;;;6.05;78.75;100888.89;1631796;87;21202;-83
2021/10/13 01:49:58;;;;;;;4.65;2.10;;;;;;;6.09;78.88;100889.08;1631724;87;21907;-81
2021/10/13 01:52:26;;;;;;;3.25;2.12;;;;;;;6.17;78.99;100892.03;1631684;87;21086;-81
2021/10/13 01:55:02;;;;;;;5.62;2.05;;;;;;;6.27;79.10;100894.25;1631415;87;22319;-81
2021/10/13 01:57:29;;;;;;;6.17;2.20;;;;;;;6.36;79.10;100894.66;1631669;87;21393;-82
2021/10/13 01:59:58;;;;;;;5.03;2.45;;;;;;;6.49;79.10;100896.49;1609683;87;21116;-82
2021/10/13 02:02:32;;;;;;;5.78;2.20;;;;;;;6.51;79.06;100891.80;1702671;83;22591;-81
2021/10/13 02:05:01;;;;;;;;;;;;;;;6.69;78.99;100904.80;1711055;82;20980;-82
2021/10/13 02:07:27;;;;;;;3.55;1.72;;;;;;;6.79;78.97;100908.30;1708130;82;20185;-81
2021/10/13 02:09:57;;;;;;;3.58;1.80;;;;;;;6.87;78.84;100914.25;1708098;82;21155;-81
2021/10/13 02:12:24;;;;;;;3.67;1.95;;;;;;;6.94;78.76;100904.52;1708332;82;21089;-81
2021/10/13 02:14:51;;;;;;;2.67;1.70;;;;;;;6.97;78.62;100897.70;1708230;82;21763;-81
2021/10/13 02:17:18;;;;;;;4.97;2.20;;;;;;;7.00;78.50;100906.08;1707945;82;21110;-81
2021/10/13 02:19:45;;;;;;;3.67;1.90;;;;;;;7.01;78.32;100907.88;1708093;83;21082;-81
2021/10/13 02:22:14;;;;;;;4.60;2.10;;;;;;;6.97;78.26;100903.36;1702972;83;21078;-81
2021/10/13 02:24:45;;;;;;;3.27;2.10;;;;;;;6.96;78.18;100906.79;1702609;84;21036;-81
2021/10/13 02:27:15;;;;;;;3.25;1.77;;;;;;;6.93;78.09;100907.99;1702533;84;22711;-81
2021/10/13 02:29:42;;;;;;;4.72;1.87;;;;;;;6.89;78.05;100908.27;1677298;83;21072;-81
2021/10/13 02:32:11;;;;;;;5.20;1.80;;;;;;;6.85;77.97;100915.52;1671462;84;21041;-80
2021/10/13 02:34:39;;;;;;;3.47;1.67;;;;;;;6.80;77.88;100915.73;1702487;83;22249;-81
2021/10/13 02:37:06;;;;;;;3.30;1.87;;;;;;;6.73;77.88;100913.25;1702635;83;21213;-80
2021/10/13 02:39:33;;;;;;;4.30;2.17;;;;;;;6.72;77.97;100909.25;1702277;84;21802;-80
2021/10/13 02:41:59;;;;;;;2.70;1.85;;;;;;;6.76;78.14;100915.13;1702375;83;21487;-80
2021/10/13 02:44:26;;;;;;;2.95;2.00;;;;;;;6.80;78.20;100913.99;1672453;84;21748;-81
2021/10/13 02:47:10;;;;;;;2.33;1.62;;;;;;;6.86;78.22;100918.59;1702402;83;21125;-80
2021/10/13 02:49:48;;;;;;;3.72;1.92;;;;;;;6.90;78.12;100917.00;1702107;84;21072;-80
2021/10/13 02:52:34;;;;;;;2.98;1.87;;;;;;;6.94;78.09;100922.42;1702497;84;21767;-81
2021/10/13 02:55:07;;;;;;;3.05;1.92;;;;;;;6.98;78.03;100924.75;1702350;84;21570;-80
2021/10/13 02:57:39;;;;;;;6.95;2.10;;;;;;;7.01;77.92;100917.93;1702607;83;21103;-81
2021/10/13 03:00:09;;;;;;;4.45;2.10;;;;;;;7.05;77.85;100924.61;1702399;83;21080;-81
2021/10/13 03:03:22;;;;;;;3.95;2.20;;;;;;;7.04;77.73;100918.88;1702608;84;21032;-81
2021/10/13 03:05:49;;;;;;;4.15;2.00;;;;;;;7.03;77.67;100914.50;1702516;83;22609;-83
2021/10/13 03:08:18;;;;;;;4.45;2.10;;;;;;;6.97;77.48;100924.30;1702598;83;21084;-82
2021/10/13 03:10:46;;;;;;;2.58;1.57;;;;;;;6.89;77.42;100926.59;1702946;83;21506;-82
2021/10/13 03:13:14;;;;;;;3.22;1.95;;;;;;;6.80;77.35;100927.50;1702333;84;21075;-83
2021/10/13 03:15:44;;;;;;;2.90;1.92;;;;;;;6.70;77.38;100918.37;1702667;84;21033;-81
2021/10/13 03:18:15;;;;;;;4.17;2.05;;;;;;;6.60;77.42;100926.20;1702630;83;21765;-82
2021/10/13 03:20:42;;;;;;;3.87;2.15;;;;;;;6.52;77.41;100921.48;1702516;83;21029;-81
2021/10/13 03:23:09;;;;;;;3.22;1.80;;;;;;;6.45;77.50;100932.07;1703478;82;21127;-82
2021/10/13 03:25:35;;;;;;;2.90;2.00;;;;;;;6.40;77.60;100931.88;1706806;82;21472;-83
2021/10/13 03:28:03;;;;;;;3.75;1.87;;;;;;;6.34;77.68;100931.58;1698890;83;21064;-82
2021/10/13 03:30:30;;;;;;;3.40;2.02;;;;;;;6.32;77.81;100942.38;1706999;83;22520;-82
2021/10/13 03:32:57;;;;;;;2.90;1.57;;;;;;;6.31;77.85;100941.92;1698981;83;21471;-81
2021/10/13 03:35:31;;;;;;;2.60;1.60;;;;;;;6.33;77.96;100951.15;1706887;83;21700;-81
2021/10/13 03:37:59;;;;;;;3.60;1.92;;;;;;;6.32;77.98;100950.23;1699127;83;21112;-81
2021/10/13 03:40:26;;;;;;;3.22;1.70;;;;;;;6.33;78.00;100956.38;1706762;82;21677;-81
2021/10/13 03:42:53;;;;;;;3.50;1.77;;;;;;;6.35;78.06;100956.91;1699113;83;22513;-81
2021/10/13 03:45:21;;;;;;;2.55;1.70;;;;;;;6.38;78.13;100957.06;1704659;82;21064;-81
2021/10/13 03:47:48;;;;;;;3.70;1.80;;;;;;;6.33;78.09;100943.30;1676716;84;21574;-81
2021/10/13 03:50:16;;;;;;;5.05;2.12;;;;;;;6.42;78.07;100965.52;1678543;84;21665;-81
2021/10/13 03:52:59;;;;;;;3.52;1.80;;;;;;;6.43;78.06;100961.18;1672455;84;21646;-81
2021/10/13 03:55:25;;;;;;;2.55;1.55;;;;;;;6.45;78.07;100959.95;1672639;85;21092;-82
2021/10/13 03:57:52;;;;;;;2.92;1.57;;;;;;;6.46;78.08;100966.56;1675302;84;21033;-82
2021/10/13 04:00:20;;;;;;;5.62;1.92;;;;;;;6.48;78.12;100965.33;1706842;82;21613;-83
2021/10/13 04:02:47;;;;;;;4.42;1.90;;;;;;;6.49;78.11;100962.75;1676846;85;21046;-83
2021/10/13 04:05:15;;;;;;;3.15;1.90;;;;;;;6.52;78.20;100968.55;1676773;84;21084;-84
2021/10/13 04:07:44;;;;;;;6.22;2.00;;;;;;;6.54;78.18;100963.86;1650939;84;21092;-81
2021/10/13 04:10:12;;;;;;;2.02;1.57;;;;;;;6.56;78.20;100967.44;1676880;85;21087;-82
2021/10/13 04:12:39;;;;;;;8.00;1.90;;;;;;;6.57;78.20;100962.70;1676857;85;21115;-82
2021/10/13 04:15:12;;;;;;;3.98;1.90;;;;;;;6.57;78.10;100966.63;1706369;82;21155;-80
2021/10/13 04:17:38;;;;;;;3.02;1.75;;;;;;;6.51;78.00;100970.25;1676789;84;21092;-82
2021/10/13 04:20:09;;;;;;;3.85;1.87;;;;;;;6.44;77.97;100973.44;1698648;84;21718;-82
2021/10/13 04:22:36;;;;;;;4.05;1.65;;;;;;;6.38;78.04;100977.06;1706414;84;21029;-83
2021/10/13 04:25:07;;;;;;;2.62;1.42;;;;;;;6.32;78.20;100982.91;1688607;83;21073;-81
2021/10/13 04:27:34;;;;;;;1.95;1.12;;;;;;;6.28;78.28;100986.63;1688945;83;21172;-80
2021/10/13 04:30:02;;;;;;;2.47;1.32;;;;;;;6.22;78.34;100989.86;1679513;84;21054;-82
2021/10/13 04:32:28;;;;;;;3.72;1.50;;;;;;;6.19;78.42;100983.17;1679301;83;22640;-84
2021/10/13 04:34:55;;;;;;;3.37;1.67;;;;;;;6.19;78.62;100982.78;1679051;85;21092;-78
2021/10/13 04:37:22;;;;;;;2.72;2.05;;;;;;;6.23;78.78;100992.55;1679151;84;21586;-79
2021/10/13 04:39:50;;;;;;;3.55;1.87;;;;;;;6.29;78.86;100987.09;1650734;85;21096;-78
2021/10/13 04:42:22;;;;;;;4.40;2.33;;;;;;;6.34;78.91;100988.22;1679011;83;21064;-79
2021/10/13 04:44:53;;;;;;;4.05;2.75;;;;;;;6.39;78.94;100996.75;1679109;84;21825;-79
2021/10/13 04:47:20;;;;;;;5.30;2.60;;;;;;;6.46;78.94;100993.09;1679283;83;21152;-79
2021/10/13 04:49:49;;;;;;;4.70;2.75;;;;;;;6.47;78.83;100998.41;1679475;84;21582;-79
2021/10/13 04:52:16;;;;;;;2.42;1.62;;;;;;;6.47;78.82;100998.83;1678778;83;21349;-79
2021/10/13 04:54:44;;;;;;;4.50;1.90;;;;;;;6.47;78.87;100996.20;1651147;85;21081;-79
2021/10/13 04:57:11;;;;;;;3.33;1.72;;;;;;;6.48;78.90;101003.24;1679372;84;21870;-85
2021/10/13 04:59:37;;;;;;;3.10;1.65;;;;;;;6.45;78.87;100996.55;1679173;84;21548;-82
2021/10/13 05:02:05;;;;;;;2.60;1.70;;;;;;;6.45;78.90;101003.98;1651613;84;21563;-81
2021/10/13 05:04:36;;;;;;;2.90;2.02;;;;;;;6.46;78.98;101006.17;1652297;85;21677;-80
2021/10/13 05:07:04;;;;;;;3.33;1.52;;;;;;;6.47;78.98;101006.67;1678974;84;21088;-83
2021/10/13 05:09:33;;;;;;;8.15;1.60;;;;;;;6.47;78.97;101013.20;1679854;84;22574;-83
2021/10/13 05:12:00;;;;;;;2.17;1.87;;;;;;;6.45;78.87;101006.59;1679601;83;21606;-82
2021/10/13 05:14:27;;;;;;;3.52;1.77;;;;;;;6.40;78.87;101007.70;1679726;85;21108;-83
2021/10/13 05:16:56;;;;;;;2.85;1.40;;;;;;;6.38;78.87;101013.67;1679086;83;21543;-82
2021/10/13 05:19:24;;;;;;;3.02;1.80;;;;;;;6.36;78.86;101015.32;1651509;85;21073;-82
2021/10/13 05:21:51;;;;;;;4.22;1.90;;;;;;;6.34;78.90;101021.78;1679714;85;21642;-82
2021/10/13 05:24:19;;;;;;;12.15;6.75;;;;;;;6.31;78.92;101021.66;1690477;82;21513;-82
2021/10/13 05:26:46;;;;;;;3.35;2.15;;;;;;;6.29;78.96;101027.23;1702604;84;21109;-83
2021/10/13 05:29:13;;;;;;;3.25;1.82;;;;;;;6.28;78.99;101029.34;1702842;84;21063;-85
2021/10/13 05:31:41;;;;;;;3.33;1.98;;;;;;;6.28;79.10;101034.58;1722974;81;21081;-85
2021/10/13 05:34:08;;;;;;;2.58;1.82;;;;;;;6.34;79.26;101038.77;1750686;81;21745;-83
2021/10/13 05:36:35;;;;;;;3.10;1.65;;;;;;;6.42;79.35;101043.08;1750559;81;21066;-84
2021/10/13 05:39:01;;;;;;;4.42;2.00;;;;;;;6.54;79.42;101046.24;1750860;81;21029;-84
2021/10/13 05:41:28;;;;;;;6.70;2.52;;;;;;;6.63;79.38;101046.20;1750753;81;21572;-84
2021/10/13 05:43:55;;;;;;;6.03;2.10;;;;;;;6.73;79.31;101054.52;1750981;81;21046;-84
2021/10/13 05:46:21;;;;;;;6.47;2.40;;;;;;;6.80;79.18;101056.59;1750908;81;21762;-83
2021/10/13 05:48:48;;;;;;;5.20;2.40;;;;;;;6.87;79.02;101060.78;1750928;81;21504;-84
2021/10/13 05:51:15;;;;;;;4.58;2.17;;;;;;;6.91;78.97;101072.78;1750939;81;21057;-83
2021/10/13 05:53:42;;;;;;;4.58;2.30;;;;;;;7.00;78.98;101062.72;1750696;81;21134;-84
2021/10/13 05:56:08;;;;;;;4.47;2.45;;;;;;;7.08;78.85;101076.57;1750826;81;21019;-83
2021/10/13 05:58:37;;;;;;;4.12;2.10;;;;;;;7.12;78.78;101080.69;1750873;81;21811;-84
2021/10/13 06:01:04;;;;;;;5.25;2.65;;;;;;;7.19;78.72;101084.48;1723951;81;21089;-84
2021/10/13 06:03:31;;;;;;;8.18;2.92;;;;;;;7.26;78.66;101083.90;1750862;81;21057;-84
2021/10/13 06:05:58;;;;;;;7.05;3.25;;;;;;;7.33;78.56;101092.50;1750658;81;21129;-84
2021/10/13 06:08:24;;;;;;;6.95;3.50;;;;;;;7.43;78.52;101090.29;1750632;81;21551;-84
2021/10/13 06:10:51;;;;;;;6.30;3.72;;;;;;;7.53;78.43;101090.76;1750590;81;21742;-84
2021/10/13 06:13:18;;;;;;;6.15;3.40;;;;;;;7.63;78.36;101093.77;1750337;81;21046;-84
2021/10/13 06:15:47;;;;;;;7.78;3.60;;;;;;;7.76;78.38;101103.52;1750628;81;21014;-84
2021/10/13 06:18:13;;;;;;;9.10;3.45;;;;;;;7.89;78.23;101101.41;1702430;84;21030;-84
2021/10/13 06:20:43;;;;;;;6.40;4.10;;;;;;;7.97;78.01;101108.74;1750869;81;21480;-83
2021/10/13 06:23:08;;;;;;;12.68;5.37;;;;;;;8.04;77.84;101103.35;1750358;81;21808;-84
2021/10/13 06:25:35;;;;;;;12.13;5.53;;;;;;;8.14;77.86;101109.86;1750499;81;21117;-84
2021/10/13 06:28:02;;;;;;;7.15;4.85;;;;;;;8.22;77.80;101113.70;1750559;81;21110;-84
2021/10/13 06:30:31;;;;;;;5.90;3.62;;;;;;;8.30;77.65;101113.58;1750754;81;21638;-83
2021/10/13 06:32:59;;;;;;;6.90;3.52;;;;;;;8.34;77.49;101122.47;1705137;84;21589;-84
2021/10/13 06:35:26;;;;;;;8.70;3.27;;;;;;;8.40;77.50;101125.76;1750767;81;21773;-84
2021/10/13 06:37:52;;;;;;;7.30;3.33;;;;;;;8.44;77.38;101129.89;1750756;81;21528;-84
2021/10/13 06:40:19;;;;;;;6.85;3.40;;;;;;;8.48;77.32;101128.29;1750675;81;21164;-84
2021/10/13 06:42:46;;;;;;;7.60;3.02;;;;;;;8.52;77.22;101133.73;1750351;81;21552;-84
2021/10/13 06:45:13;;;;;;;7.95;3.58;;;;;;;8.56;77.14;101131.70;1750609;81;21260;-83
2021/10/13 06:47:40;;;;;;;6.35;3.22;;;;;;;8.56;76.98;101135.64;1750816;81;21833;-84
2021/10/13 06:50:07;;;;;;;9.18;3.77;;;;;;;8.58;76.93;101137.41;1750799;81;21175;-83
2021/10/13 06:52:37;;;;;;;10.60;4.53;;;;;;;8.64;77.00;101141.18;1723119;81;21053;-84
2021/10/13 06:55:06;;;;;;;7.28;4.00;;;;;;;8.71;76.83;101141.02;1750864;81;21062;-84
2021/10/13 06:57:32;;;;;;;9.13;4.45;;;;;;;8.75;76.82;101145.12;1751021;81;21105;-83
2021/10/13 07:00:00;;;;;;;9.05;4.92;;;;;;;8.80;76.69;101147.91;1750497;81;21866;-83
2021/10/13 07:02:26;;;;;;;7.78;3.87;;;;;;;8.81;76.62;101140.95;1750759;81;21524;-83
2021/10/13 07:04:53;;;;;;;10.58;4.00;;;;;;;8.85;76.60;101146.36;1750925;81;21053;-83
2021/10/13 07:07:20;;;;;;;5.28;3.47;;;;;;;8.84;76.40;101147.61;1750961;81;21683;-84
2021/10/13 07:09:46;;;;;;;6.55;3.35;;;;;;;8.82;76.23;101156.77;1750842;81;20998;-83
2021/10/13 07:12:13;;;;;;;10.10;3.60;;;;;;;8.77;76.13;101153.48;1750689;81;21759;-84
2021/10/13 07:14:40;;;;;;;7.22;4.47;;;;;;;8.71;76.10;101156.77;1750838;81;20994;-83
2021/10/13 07:17:06;;;;;;;9.00;4.12;;;;;;;8.68;76.13;101163.20;1750707;81;21073;-83
2021/10/13 07:19:33;;;;;;;7.83;4.70;;;;;;;8.68;76.25;101161.88;1750547;81;21069;-83
2021/10/13 07:22:00;;;;;;;9.55;3.98;;;;;;;8.74;76.34;101164.73;1750729;81;21010;-84
2021/10/13 07:24:26;;;;;;;10.00;4.45;;;;;;;8.81;76.29;101163.27;1750457;81;22547;-84
2021/10/13 07:26:53;;;;;;;7.47;3.95;;;;;;;8.84;76.22;101167.30;1750692;81;21077;-84
2021/10/13 07:29:20;;;;;;;10.05;3.92;;;;;;;8.87;76.19;101160.44;1750418;81;21155;-83
2021/10/13 07:31:47;;;;;;;7.58;4.15;;;;;;;8.87;76.04;101167.00;1750773;81;21085;-84
2021/10/13 07:34:17;;;;;;;7.12;3.33;;;;;;;8.85;75.95;101169.98;1750843;81;21120;-83
2021/10/13 07:36:42;;;;;;;9.33;4.83;;;;;;;8.86;75.98;101168.25;1749786;81;21808;-84
2021/10/13 07:39:09;;;;;;;5.87;3.75;;;;;;;8.93;76.09;101170.28;1750864;81;21092;-83
2021/10/13 07:41:36;;;;;;;8.43;4.17;;;;;;;9.06;76.23;101167.70;1750570;81;21133;-84
2021/10/13 07:44:03;;;;;;;6.60;3.22;;;;;;;9.21;76.17;101173.53;1750824;81;21563;-84
2021/10/13 07:46:30;;;;;;;6.40;3.30;;;;;;;9.37;76.12;101181.58;1750744;81;21057;-84
2021/10/13 07:48:56;;;;;;;6.58;3.27;;;;;;;9.51;75.93;101175.49;1750926;81;21753;-84
2021/10/13 07:51:25;;;;;;;6.50;3.30;;;;;;;9.67;75.85;101176.95;1750693;81;21054;-83
2021/10/13 07:53:51;;;;;;;5.65;3.10;;;;;;;9.77;75.48;101175.11;1750904;81;21055;-83
2021/10/13 07:56:18;;;;;;;5.37;2.98;;;;;;;9.80;75.17;101179.17;1750664;81;21121;-84
2021/10/13 07:58:45;;;;;;;9.55;3.83;;;;;;;9.82;74.92;101181.86;1750632;81;21077;-84
2021/10/13 08:01:11;;;;;;;6.03;3.25;;;;;;;9.84;74.79;101187.63;1751059;81;22616;-83
2021/10/13 08:03:40;;;;;;;5.05;3.00;;;;;;;9.82;74.49;101182.74;1750963;81;20982;-83
2021/10/13 08:06:07;;;;;;;6.45;2.35;;;;;;;9.78;74.35;101183.88;1751058;81;21027;-84
2021/10/13 08:08:34;;;;;;;5.67;3.12;;;;;;;9.77;74.43;101190.88;1682760;84;21577;-83
2021/10/13 08:11:00;;;;;;;4.83;2.60;;;;;;;9.80;74.50;101187.45;1750936;81;21101;-83
2021/10/13 08:13:27;;;;;;;4.08;2.70;;;;;;;9.84;74.35;101196.84;1750825;81;22421;-84
2021/10/13 08:15:54;;;;;;;7.45;2.50;;;;;;;9.85;74.33;101194.70;1750950;81;21061;-84
2021/10/13 08:18:21;;;;;;;3.77;2.52;;;;;;;9.90;74.16;101192.21;1750972;81;21383;-83
2021/10/13 08:20:47;;;;;;;4.05;2.35;;;;;;;9.90;73.93;101193.09;1750953;81;21126;-83
2021/10/13 08:23:14;;;;;;;4.40;2.47;;;;;;;9.93;73.89;101195.84;1723865;81;21359;-84
2021/10/13 08:25:41;;;;;;;4.15;2.05;;;;;;;9.98;73.82;101193.36;1750514;81;21740;-83
2021/10/13 08:28:08;;;;;;;4.28;2.00;;;;;;;10.01;73.52;101200.05;1750753;81;21074;-83
2021/10/13 08:30:34;;;;;;;4.45;1.92;;;;;;;10.05;73.47;101199.73;1750855;81;21088;-84
2021/10/13 08:33:01;;;;;;;4.03;1.98;;;;;;;10.09;73.40;101202.94;1750441;81;21578;-84
2021/10/13 08:35:29;;;;;;;3.67;2.08;;;;;;;10.12;73.12;101205.25;1750802;81;21355;-84
2021/10/13 08:37:55;;;;;;;3.27;1.62;;;;;;;10.20;73.17;101201.56;1750673;81;21764;-83
2021/10/13 08:40:22;;;;;;;3.25;1.70;;;;;;;10.31;73.12;101195.39;1750581;81;21104;-84
2021/10/13 08:42:57;;;;;;;2.87;1.60;;;;;;;10.40;72.81;101194.38;1750646;81;21089;-84
2021/10/13 08:45:25;;;;;;;2.98;1.50;;;;;;;10.52;72.70;101198.25;1750601;81;21053;-84
2021/10/13 08:47:52;;;;;;;2.45;1.50;;;;;;;10.59;72.42;101198.93;1750710;81;21046;-83
2021/10/13 08:50:18;;;;;;;1.85;1.22;;;;;;;10.65;72.17;101203.95;1750646;81;21760;-82
2021/10/13 08:52:45;;;;;;;2.50;1.20;;;;;;;10.64;71.61;101217.98;1750615;81;21085;-82
2021/10/13 08:55:12;;;;;;;3.98;1.22;;;;;;;10.62;71.62;101207.83;1750470;81;21058;-82
2021/10/13 08:57:39;;;;;;;2.52;1.40;;;;;;;10.76;71.87;101208.68;1750398;81;21030;-83
2021/10/13 09:00:07;;;;;;;4.62;2.20;;;;;;;10.93;71.55;101210.52;1750490;81;21108;-83
2021/10/13 09:02:45;;;;;;;3.15;1.30;;;;;;;11.03;71.59;101212.14;1750545;81;21771;-82
2021/10/13 09:05:20;;;;;;;1.95;1.37;;;;;;;11.07;70.96;101220.64;1750452;81;21650;-82
2021/10/13 09:07:56;;;;;;;1.95;1.30;;;;;;;11.02;70.77;101224.86;1702670;84;20995;-82
2021/10/13 09:10:36;;;;;;;4.55;1.40;;;;;;;11.06;70.70;101224.53;1750607;81;21188;-83
2021/10/13 09:13:07;;;;;;;1.00;0.88;;;;;;;11.14;70.76;101232.23;1750606;81;21070;-82
2021/10/13 09:15:34;;;;;;;2.30;1.20;;;;;;;11.24;70.49;101224.18;1749835;81;21971;-82
2021/10/13 09:18:07;;;;;;;3.30;1.00;;;;;;;11.28;70.33;101235.31;1750565;81;21038;-82
2021/10/13 09:20:37;;;;;;;2.00;1.10;;;;;;;11.34;70.01;101231.97;1750582;81;21078;-82
2021/10/13 09:23:13;;;;;;;2.55;1.25;;;;;;;11.45;69.68;101238.44;1750480;81;21058;-82
2021/10/13 09:25:40;;;;;;;2.37;1.55;;;;;;;11.45;69.38;101245.03;1750339;81;21037;-82
2021/10/13 09:28:07;;;;;;;1.87;1.10;;;;;;;11.48;68.88;101254.33;1723111;81;21930;-82
2021/10/13 09:30:40;;;;;;;21.10;15.50;;;;;;;11.47;68.90;101244.65;1750364;81;21128;-82
2021/10/13 09:33:17;;;;;;;5.92;4.45;;;;;;;11.47;68.61;101241.58;1750707;81;21101;-82
2021/10/13 09:35:49;;;;;;;2.25;1.85;;;;;;;11.55;68.60;101252.34;1748915;81;21081;-82
2021/10/13 09:38:20;;;;;;;;;;;;;;;11.80;68.55;101264.47;1724661;81;21096;-82
2021/10/13 09:40:48;;;;;;;3.40;1.40;;;;;;;12.04;68.25;101251.54;1749839;81;21775;-82
2021/10/13 09:43:36;;;;;;;2.20;1.57;;;;;;;12.23;67.92;101248.96;1750535;81;21135;-82
2021/10/13 09:46:09;;;;;;;2.00;1.52;;;;;;;12.38;67.81;101265.62;1750701;81;21082;-82
2021/10/13 09:48:42;;;;;;;8.10;0.80;;;;;;;12.49;67.39;101264.16;1750777;81;21065;-82
2021/10/13 09:51:21;;;;;;;1.32;0.93;;;;;;;12.63;67.31;101271.09;1750454;81;21054;-82
2021/10/13 09:53:52;;;;;;;2.55;1.40;;;;;;;12.77;67.08;101272.34;1750477;81;22224;-82
2021/10/13 09:56:40;;;;;;;1.47;0.70;;;;;;;12.81;65.99;101280.80;1750091;81;21087;-82
2021/10/13 09:59:14;;;;;;;1.67;0.50;;;;;;;12.58;65.27;101285.52;1749661;81;21556;-83
2021/10/13 10:01:54;;;;;;;7.42;0.75;;;;;;;12.28;64.80;101297.93;1750163;81;21583;-83
2021/10/13 10:04:26;;;;;;;1.17;0.45;;;;;;;11.78;67.29;101321.56;1749171;81;21586;-82
2021/10/13 10:06:58;;;;;;;1.65;0.47;;;;;;;10.48;68.81;101316.59;1750303;81;21756;-82
2021/10/13 10:09:27;;;;;;;0.88;0.78;;;;;;;9.77;70.25;101310.50;1750010;81;21093;-83
2021/10/13 10:12:07;;;;;;;1.32;0.60;;;;;;;9.53;70.95;101321.90;1749519;81;21038;-83
2021/10/13 10:14:40;;;;;;;1.87;1.00;;;;;;;9.43;71.51;101319.73;1742247;81;21185;-82
2021/10/13 10:17:06;;;;;;;1.85;1.00;;;;;;;9.47;72.58;101328.20;1704733;84;21023;-82
2021/10/13 10:19:43;;;;;;;1.40;0.90;;;;;;;9.59;72.88;101330.83;1750515;81;21825;-82
2021/10/13 10:22:18;;;;;;;2.67;1.10;;;;;;;9.68;72.62;101336.02;1750505;81;21061;-83
2021/10/13 10:24:53;;;;;;;2.75;1.45;;;;;;;9.77;72.84;101333.27;1750301;81;21607;-83
2021/10/13 10:27:29;;;;;;;8.98;7.05;;;;;;;9.80;72.98;101331.66;1750549;81;21053;-83
2021/10/13 10:30:09;;;;;;;4.37;3.30;;;;;;;9.87;73.20;101338.95;1750757;81;21610;-83
2021/10/13 10:32:40;;;;;;;4.12;2.15;;;;;;;9.95;72.76;101335.67;1750162;81;21756;-83
2021/10/13 10:35:10;;;;;;;5.70;3.15;;;;;;;10.00;72.76;101334.12;1750802;81;21050;-83
2021/10/13 10:37:48;;;;;;;3.40;2.17;;;;;;;10.08;72.89;101330.05;1750909;81;21069;-84
2021/10/13 10:40:23;;;;;;;4.55;2.70;;;;;;;10.18;72.58;101327.33;1750996;81;21045;-83
2021/10/13 10:43:02;;;;;;;3.75;1.92;;;;;;;10.26;72.56;101324.54;1735705;81;21470;-83
2021/10/13 10:45:32;;;;;;;4.42;1.87;;;;;;;10.40;72.71;101324.65;1750893;81;21766;-83
2021/10/13 10:48:06;;;;;;;6.17;3.37;;;;;;;10.51;72.08;101330.30;1750866;81;21136;-83
2021/10/13 10:50:47;;;;;;;4.47;2.37;;;;;;;10.64;71.88;101332.89;1750778;81;21639;-83
2021/10/13 10:53:31;;;;;;;7.67;4.80;;;;;;;10.82;71.79;101332.20;1725414;81;21085;-82
2021/10/13 10:56:01;;;;;;;;;;;;;;;11.01;70.74;101335.02;1674836;84;21567;-82
2021/10/13 10:58:30;;;;;;;4.10;2.17;;;;;;;11.18;70.63;101332.04;1690719;84;21957;-83
2021/10/13 11:01:12;;;;;;;3.12;1.45;;;;;;;11.41;70.71;101327.48;1693327;84;21295;-83
2021/10/13 11:03:41;;;;;;;4.80;1.52;;;;;;;11.63;70.03;101338.26;1693377;84;21701;-83
2021/10/13 11:06:21;;;;;;;2.92;1.25;;;;;;;11.76;69.64;101334.25;1693257;84;21216;-83
2021/10/13 11:09:05;;;;;;;4.33;1.47;;;;;;;11.84;69.30;101337.59;1693412;84;21093;-83
2021/10/13 11:11:42;;;;;;;8.30;4.17;;;;;;;11.83;68.70;101333.16;1693169;83;21225;-83
2021/10/13 11:14:25;;;;;;;12.58;8.88;;;;;;;11.76;68.45;101340.84;1692867;84;21539;-82
2021/10/13 11:16:58;;;;;;;6.07;1.80;;;;;;;11.75;68.28;101343.00;1693470;84;21128;-83
2021/10/13 11:19:31;;;;;;;7.92;3.45;;;;;;;11.72;68.34;101340.29;1693112;83;21114;-83
2021/10/13 11:22:06;;;;;;;4.83;1.30;;;;;;;11.71;68.05;101343.33;1693443;84;21183;-82
2021/10/13 11:24:39;;;;;;;3.87;1.27;;;;;;;11.67;67.72;101338.81;1693040;84;22465;-82
2021/10/13 11:27:04;;;;;;;2.90;1.37;;;;;;;11.57;67.45;101342.04;1666161;83;21108;-82
2021/10/13 11:29:34;;;;;;;3.98;1.90;;;;;;;11.50;67.07;101334.78;1616666;88;21136;-82
2021/10/13 11:32:11;;;;;;;3.58;2.17;;;;;;;11.50;67.32;101331.72;1628429;85;21074;-81
2021/10/13 11:34:38;;;;;;;2.60;1.27;;;;;;;11.55;66.86;101334.51;1708406;82;21159;-82
2021/10/13 11:37:05;;;;;;;2.00;1.30;;;;;;;11.44;66.48;101332.42;1708492;84;21783;-82
2021/10/13 11:39:35;;;;;;;2.25;1.50;;;;;;;11.31;66.13;101331.58;1708795;84;21492;-82
2021/10/13 11:42:01;;;;;;;1.50;1.30;;;;;;;11.23;65.94;101333.97;1708572;84;21048;-82
2021/10/13 11:44:29;;;;;;;2.12;0.93;;;;;;;11.21;65.35;101342.26;1708345;84;21025;-82
2021/10/13 11:47:03;;;;;;;1.77;1.20;;;;;;;11.19;65.24;101328.14;1708433;84;21033;-82
2021/10/13 11:49:29;;;;;;;6.53;4.35;;;;;;;11.23;65.37;101331.77;1708407;84;22025;-81